Latest Weather Observations for Yunta

IDS60801

Issued at 10:01 am CST Wednesday 8 July 2015 (issued every 30 minutes, with the page automatically refreshed every 10 minutes)

About weather observations | Map of weather stations | Latest weather observations for SA | Other Formats
Station Details ID: 020062 Name: YUNTA AIRSTRIP Lat: -32.57 Lon: 139.56 Height: 300.0 m
Data from the previous 72 hours. | See also: Recent months at Yunta
Date/Time
CST
Temp
°C
App
Temp
°C
Dew
Point
Rel
Hum
%
Delta-T
°C
Wind Press
QNH
hPa
Press
MSL
hPa
Rain
since 9 am
mm
Dir
 
Spd
km/h
Gust
km/h
Spd
kts
Gust
kts
08/10:00am 11.9 11.0 6.2 68 2.7 CALM 0 0 0 0 1024.5 1024.9 0.0
08/09:30am 10.9 10.1 6.6 75 2.0 CALM 0 4 0 2 1024.4 1024.8 0.0
08/09:00am 9.8 9.1 6.9 82 1.4 CALM 0 0 0 0 1024.1 1024.5 0.0
08/08:30am 9.1 8.3 6.7 85 1.1 CALM 0 0 0 0 1024.0 1024.4 0.0
08/08:00am 8.4 7.6 6.4 87 0.9 CALM 0 0 0 0 1023.9 1024.3 0.0
08/07:30am 8.2 6.9 6.0 86 1.0 SSW 2 4 1 2 1023.5 1023.9 0.0
08/07:00am 8.4 6.7 6.0 85 1.1 WSW 4 6 2 3 1023.3 1023.7 0.0
08/06:30am 8.5 6.5 6.1 85 1.1 SW 6 6 3 3 1023.0 1023.4 0.0
08/06:00am 8.5 6.8 6.1 85 1.1 WSW 4 6 2 3 1022.9 1023.3 0.0
08/05:30am 8.5 6.8 6.1 85 1.1 WSW 4 4 2 2 1022.7 1023.1 0.0
08/05:00am 8.6 6.9 6.1 84 1.2 WSW 4 4 2 2 1022.6 1023.0 0.0
08/04:30am 8.4 7.1 5.9 84 1.2 W 2 4 1 2 1022.3 1022.8 0.0
08/04:00am 8.4 7.4 5.5 82 1.3 CALM 0 4 0 2 1022.6 1023.0 0.0
08/03:30am 8.4 7.4 5.5 82 1.3 CALM 0 0 0 0 1022.3 1022.8 0.0
08/03:00am 8.3 6.9 5.6 83 1.2 N 2 6 1 3 1022.7 1023.1 0.0
08/02:30am 8.2 7.1 5.3 82 1.3 CALM 0 2 0 1 1022.7 1023.1 0.0
08/02:00am 8.6 7.6 5.4 80 1.5 CALM 0 2 0 1 1022.8 1023.2 0.0
08/01:30am 8.9 7.5 5.3 78 1.6 S 2 4 1 2 1022.7 1023.1 0.0
08/01:00am 9.4 7.9 5.0 74 2.0 SSW 2 4 1 2 1022.8 1023.2 0.0
08/12:30am 9.0 7.1 5.0 76 1.8 WNW 4 9 2 5 1023.0 1023.4 0.0
08/12:00am 9.1 7.9 4.7 74 2.0 CALM 0 0 0 0 1023.0 1023.4 0.0
 
Date/Time
CST
Temp
°C
App
Temp
°C
Dew
Point
Rel
Hum
%
Delta-T
°C
Wind Press
QNH
hPa
Press
MSL
hPa
Rain
since 9 am
mm
Dir
 
Spd
km/h
Gust
km/h
Spd
kts
Gust
kts
07/11:30pm 8.7 6.4 4.7 76 1.8 SE 6 13 3 7 1023.2 1023.6 0.0
07/11:00pm 8.9 7.3 4.7 75 1.9 NE 2 9 1 5 1023.1 1023.5 0.0
07/10:30pm 8.6 6.3 4.6 76 1.8 ENE 6 13 3 7 1023.1 1023.5 0.0
07/10:00pm 8.8 7.2 4.4 74 2.0 WNW 2 2 1 1 1022.9 1023.3 0.0
07/09:30pm 8.9 7.3 4.3 73 2.0 ESE 2 6 1 3 1023.0 1023.4 0.0
07/09:00pm 9.3 7.3 4.5 72 2.2 NE 4 6 2 3 1022.9 1023.3 0.0
07/08:30pm 9.6 7.7 5.0 73 2.1 ESE 4 6 2 3 1022.8 1023.2 0.0
07/08:00pm 9.7 7.8 5.1 73 2.1 S 4 7 2 4 1022.6 1023.0 0.0
07/07:30pm 9.1 8.0 5.1 76 1.8 CALM 0 6 0 3 1022.5 1022.9 0.0
07/07:00pm 8.6 6.6 4.6 76 1.8 N 4 4 2 2 1022.2 1022.6 0.0
07/06:30pm 9.2 7.1 4.0 70 2.3 NE 4 6 2 3 1021.9 1022.3 0.0
07/06:00pm 9.7 8.4 4.3 69 2.4 CALM 0 4 0 2 1021.6 1022.0 0.0
07/05:30pm 11.6 10.5 5.0 64 3.1 CALM 0 0 0 0 1021.4 1021.8 0.0
07/05:00pm 12.2 10.4 5.4 63 3.2 SW 4 4 2 2 1021.2 1021.6 0.0
07/04:30pm 13.6 12.5 5.0 56 4.0 CALM 0 2 0 1 1021.0 1021.4 0.0
07/04:00pm 14.2 12.2 4.5 52 4.6 SSW 4 6 2 3 1021.0 1021.4 0.0
07/03:30pm 15.7 14.0 4.1 46 5.4 SE 2 4 1 2 1020.9 1021.3 0.0
07/03:00pm 15.3 13.3 4.4 48 5.1 E 4 7 2 4 1020.9 1021.3 0.0
07/02:30pm 14.9 12.6 4.9 51 4.7 SE 6 13 3 7 1020.9 1021.3 0.0
07/02:00pm 15.0 13.2 5.2 52 4.7 SSW 4 9 2 5 1021.0 1021.4 0.0
07/01:30pm 15.2 14.3 6.0 54 4.5 CALM 0 2 0 1 1021.3 1021.7 0.0
07/01:00pm 14.2 12.5 6.1 58 3.9 WSW 4 11 2 6 1021.6 1022.0 0.0
07/12:30pm 13.3 11.1 5.5 59 3.7 WSW 6 11 3 6 1022.0 1022.4 0.0
07/12:00pm 12.8 10.7 5.9 63 3.3 SW 6 11 3 6 1022.3 1022.8 0.0
07/11:30am 12.3 9.8 6.4 67 2.8 SW 9 15 5 8 1022.6 1023.0 0.0
07/11:00am 11.6 9.4 6.1 69 2.6 WSW 7 15 4 8 1022.9 1023.3 0.0
07/10:30am 11.4 9.4 6.9 74 2.2 WSW 7 13 4 7 1023.0 1023.4 0.0
07/10:00am 10.7 8.2 6.6 76 2.0 W 9 13 5 7 1023.1 1023.5 0.0
07/09:30am 10.0 7.6 7.1 82 1.4 W 9 13 5 7 1022.9 1023.3 0.0
07/09:00am 8.8 5.9 6.4 85 1.1 WSW 11 17 6 9 1022.7 1023.1 0.0
07/08:30am 7.2 5.1 6.0 92 0.5 WSW 6 9 3 5 1022.5 1022.9 0.0
07/08:00am 4.0 2.5 2.8 92 0.5 CALM 0 2 0 1 1022.3 1022.8 0.0
07/07:30am 2.9 1.2 1.7 92 0.5 CALM 0 0 0 0 1022.0 1022.4 0.0
07/07:00am 3.5 1.5 2.3 92 0.5 NW 2 6 1 3 1021.7 1022.1 0.0
07/06:30am 3.6 2.0 2.4 92 0.5 CALM 0 4 0 2 1021.3 1021.7 0.0
07/06:00am 3.9 1.6 2.6 91 0.5 W 4 6 2 3 1021.0 1021.4 0.0
07/05:30am 5.1 2.6 3.9 92 0.5 WSW 6 7 3 4 1020.7 1021.1 0.0
07/05:00am 5.5 3.1 4.3 92 0.5 SW 6 7 3 4 1020.5 1020.9 0.0
07/04:30am 4.9 3.5 3.6 91 0.5 CALM 0 0 0 0 1020.4 1020.8 0.0
07/04:00am 4.4 2.6 3.2 92 0.5 NW 2 4 1 2 1020.4 1020.8 0.0
07/03:30am 4.4 2.9 3.1 91 0.5 CALM 0 2 0 1 1020.4 1020.8 0.0
07/03:00am 5.0 2.8 3.5 90 0.6 NW 4 6 2 3 1020.4 1020.8 0.0
07/02:30am 6.2 3.9 4.8 91 0.6 W 6 6 3 3 1020.3 1020.7 0.0
07/02:00am 5.3 3.9 3.6 89 0.7 CALM 0 0 0 0 1020.4 1020.8 0.0
07/01:30am 6.5 4.6 5.0 90 0.7 SW 4 6 2 3 1020.3 1020.7 0.0
07/01:00am 6.9 4.2 5.5 91 0.6 W 9 13 5 7 1020.3 1020.7 0.0
07/12:30am 6.1 3.5 4.4 89 0.7 WSW 7 9 4 5 1020.4 1020.8 0.0
07/12:00am 6.7 3.8 4.9 88 0.8 W 9 13 5 7 1020.2 1020.6 0.0
 
Date/Time
CST
Temp
°C
App
Temp
°C
Dew
Point
Rel
Hum
%
Delta-T
°C
Wind Press
QNH
hPa
Press
MSL
hPa
Rain
since 9 am
mm
Dir
 
Spd
km/h
Gust
km/h
Spd
kts
Gust
kts
06/11:30pm 7.7 4.3 5.7 87 0.9 W 13 17 7 9 1020.2 1020.6 0.0
06/11:00pm 7.9 5.2 5.4 84 1.1 W 9 13 5 7 1020.3 1020.7 0.0
06/10:30pm 7.4 4.2 4.9 84 1.1 WNW 11 13 6 7 1020.3 1020.7 0.0
06/10:00pm 7.2 3.9 4.3 82 1.3 W 11 13 6 7 1020.4 1020.8 0.0
06/09:30pm 7.3 4.7 4.3 81 1.3 W 7 11 4 6 1020.1 1020.5 0.0
06/09:00pm 7.0 3.5 3.6 79 1.5 W 11 13 6 7 1019.8 1020.2 0.0
06/08:30pm 6.9 4.4 3.5 79 1.5 WSW 6 7 3 4 1019.7 1020.1 0.0
06/08:00pm 6.4 4.9 3.0 79 1.4 CALM 0 0 0 0 1019.5 1019.8 0.0
06/07:30pm 7.6 5.4 3.1 73 1.9 WNW 4 7 2 4 1019.1 1019.4 0.0
06/07:00pm 8.4 6.6 3.5 71 2.1 ESE 2 11 1 6 1019.1 1019.4 0.0
06/06:30pm 9.9 6.1 3.9 66 2.7 WSW 13 15 7 8 1018.6 1019.0 0.0
06/06:00pm 10.6 8.5 3.9 63 3.0 WSW 4 7 2 4 1018.6 1019.0 0.0
06/05:30pm 12.2 8.2 4.7 60 3.5 WSW 15 19 8 10 1018.2 1018.6 0.0
06/05:00pm 13.8 10.4 5.7 58 3.9 W 13 22 7 12 1017.8 1018.2 0.0
06/04:30pm 14.2 10.5 6.1 58 3.9 W 15 20 8 11 1017.5 1017.9 0.0
06/04:00pm 14.8 10.1 5.9 55 4.3 W 20 26 11 14 1017.5 1017.9 0.0
06/03:30pm 14.9 9.8 6.2 56 4.3 W 22 30 12 16 1017.4 1017.8 0.0
06/03:00pm 15.3 9.5 6.3 55 4.4 W 26 32 14 17 1017.1 1017.5 0.0
06/02:30pm 15.3 10.1 5.5 52 4.7 W 22 35 12 19 1016.8 1017.2 0.0
06/02:00pm 16.4 10.9 5.7 49 5.2 W 24 32 13 17 1016.7 1017.1 0.0
06/01:30pm 16.3 9.6 5.6 49 5.2 W 30 37 16 20 1016.6 1016.9 0.0
06/01:00pm 15.8 9.8 5.1 49 5.2 W 26 35 14 19 1017.1 1017.5 0.0
06/12:30pm 16.4 9.7 5.4 48 5.3 W 30 41 16 22 1016.9 1017.3 0.0
06/12:00pm 16.3 9.8 4.7 46 5.6 WNW 28 39 15 21 1017.2 1017.6 0.0
06/11:30am 15.3 8.6 3.8 46 5.4 WNW 28 39 15 21 1017.6 1018.0 0.0
06/11:00am 15.0 8.7 3.8 47 5.2 WNW 26 39 14 21 1017.9 1018.3 0.0
06/10:30am 14.7 8.7 3.5 47 5.2 WNW 24 33 13 18 1018.1 1018.5 0.0
06/10:00am 13.3 7.4 3.9 53 4.3 NW 24 32 13 17 1018.1 1018.5 0.0
06/09:30am 11.1 7.3 3.9 61 3.2 NNW 13 19 7 10 1018.3 1018.7 0.0
06/09:00am 10.0 5.7 3.5 64 2.9 NNW 15 19 8 10 1018.1 1018.5 0.0
06/08:30am 8.7 4.1 3.5 70 2.3 NNW 17 20 9 11 1017.8 1018.2 0.0
06/08:00am 8.1 3.0 3.2 71 2.1 NNW 19 20 10 11 1017.8 1018.2 0.0
06/07:30am 6.7 3.1 3.1 78 1.5 NNW 11 13 6 7 1017.4 1017.8 0.0
06/07:00am 7.2 3.2 2.9 74 1.8 NNW 13 15 7 8 1017.6 1018.0 0.0
06/06:30am 7.4 2.2 2.5 71 2.1 N 19 20 10 11 1017.4 1017.8 0.0
06/06:00am 6.7 3.8 2.4 74 1.8 N 7 11 4 6 1017.4 1017.8 0.0
06/05:30am 7.4 2.2 2.7 72 2.0 NNW 19 20 10 11 1017.1 1017.5 0.0
06/05:00am 7.3 2.0 2.8 73 1.9 NNW 20 24 11 13 1017.0 1017.4 0.0
06/04:30am 6.7 2.3 2.8 76 1.6 NNW 15 17 8 9 1017.3 1017.7 0.0
06/04:00am 5.5 2.5 2.3 80 1.3 NNW 7 13 4 7 1017.5 1017.9 0.0
06/03:30am 5.9 2.6 2.4 78 1.5 N 9 13 5 7 1017.3 1017.7 0.0
06/03:00am 6.5 2.1 2.8 77 1.6 NNW 15 20 8 11 1017.4 1017.8 0.0
06/02:30am 6.9 1.2 2.8 75 1.7 N 22 24 12 13 1017.4 1017.8 0.0
06/02:00am 7.4 1.7 2.7 72 2.0 N 22 24 12 13 1017.6 1018.0 0.0
06/01:30am 7.3 1.6 3.0 74 1.8 N 22 24 12 13 1017.9 1018.3 0.0
06/01:00am 6.8 1.6 2.7 75 1.7 NNW 19 20 10 11 1018.1 1018.5 0.0
06/12:30am 7.0 1.9 2.9 75 1.7 N 19 20 10 11 1018.3 1018.7 0.0
06/12:00am 7.0 2.3 3.1 76 1.7 N 17 19 9 10 1018.6 1019.0 0.0
 
Date/Time
CST
Temp
°C
App
Temp
°C
Dew
Point
Rel
Hum
%
Delta-T
°C
Wind Press
QNH
hPa
Press
MSL
hPa
Rain
since 9 am
mm
Dir
 
Spd
km/h
Gust
km/h
Spd
kts
Gust
kts
05/11:30pm 6.4 2.1 3.0 79 1.4 N 15 17 8 9 1019.0 1019.3 0.0
05/11:00pm 6.0 2.0 2.8 80 1.3 N 13 15 7 8 1019.0 1019.3 0.0
05/10:30pm 5.6 2.0 2.9 83 1.1 N 11 13 6 7 1019.0 1019.3 0.0
05/10:00pm 6.3 3.1 2.8 78 1.5 NNW 9 11 5 6 1019.0 1019.3 0.0
05/09:30pm 7.0 3.1 3.3 77 1.6 N 13 15 7 8 1019.0 1019.3 0.0
05/09:00pm 7.2 3.3 3.3 76 1.7 N 13 17 7 9 1019.0 1019.3 0.0
05/08:30pm 8.1 4.6 3.4 72 2.0 N 11 13 6 7 1019.0 1019.3 0.0
05/08:00pm 8.3 4.9 3.8 73 2.0 N 11 15 6 8 1018.8 1019.2 0.0
05/07:30pm 8.1 5.5 3.4 72 2.0 N 6 7 3 4 1018.7 1019.1 0.0
05/07:00pm 8.0 4.8 2.9 70 2.2 WNW 9 13 5 7 1018.6 1019.0 0.0
05/06:30pm 8.7 5.5 3.3 69 2.4 WNW 9 9 5 5 1018.4 1018.8 0.0
05/06:00pm 10.5 7.8 3.8 63 3.0 WNW 7 9 4 5 1018.3 1018.7 0.0
05/05:30pm 11.8 9.4 4.3 60 3.4 W 6 6 3 3 1018.3 1018.7 0.0
05/05:00pm 13.4 10.9 4.0 53 4.3 WSW 6 7 3 4 1018.1 1018.5 0.0
05/04:30pm 14.4 11.1 2.6 45 5.3 NW 9 13 5 7 1018.2 1018.6 0.0
05/04:00pm 15.1 11.0 2.3 42 5.8 WNW 13 19 7 10 1018.3 1018.7 0.0
05/03:30pm 15.4 11.4 2.6 42 5.8 NW 13 17 7 9 1018.3 1018.7 0.0
05/03:00pm 15.8 11.8 2.6 41 6.0 WNW 13 20 7 11 1018.5 1018.9 0.0
05/02:30pm 15.4 11.5 3.2 44 5.6 W 13 20 7 11 1018.6 1019.0 0.0
05/02:00pm 15.2 11.6 2.7 43 5.7 W 11 17 6 9 1018.6 1019.0 0.0
05/01:30pm 15.1 11.8 2.6 43 5.7 W 9 17 5 9 1018.7 1019.1 0.0
05/01:00pm 15.2 11.7 3.7 46 5.4 WNW 11 15 6 8 1019.2 1019.5 0.0
05/12:30pm 14.6 11.1 3.4 47 5.1 WNW 11 19 6 10 1019.8 1020.2 0.0
05/12:00pm 14.3 10.4 3.2 47 5.1 WNW 13 17 7 9 1020.3 1020.7 0.0
05/11:30am 14.0 10.6 4.0 51 4.6 W 11 15 6 8 1020.8 1021.2 0.0
05/11:00am 13.4 10.8 6.0 61 3.6 NNW 9 13 5 7 1021.0 1021.4 0.0
05/10:30am 12.4 9.8 6.0 65 3.1 NNW 9 13 5 7 1021.4 1021.8 0.0

Other Formats:

Comma delimited format used in spreadsheet applications
http://www.bom.gov.au/fwo/IDS60801/IDS60801.94684.axf

JavaScript Object Notation format (JSON) in row-major order
http://www.bom.gov.au/fwo/IDS60801/IDS60801.94684.json